Time;durP1;ratioP1;P1;durP2;ratioP2;P2;SDS_P1;SDS_P2;PMS_P1;PMS_P2;Temp;Humidity;BMP_temperature;BMP_pressure;BME280_temperature;BME280_humidity;BME280_pressure;Samples;Min_cycle;Max_cycle;Signal;HPM_P1;HPM_P2
2022/01/31 00:00:07;;;;;;;81.10;15.83;;;5.80;99.90;;;;;;5085250;28;20212;-72
2022/01/31 00:02:40;;;;;;;95.13;18.63;;;5.70;99.90;;;;;;5086277;28;20335;-72
2022/01/31 00:05:07;;;;;;;83.43;17.03;;;5.80;99.90;;;;;;5086190;28;20797;-72
2022/01/31 00:07:35;;;;;;;83.07;17.37;;;;;;;;;;5083629;28;20217;-72
2022/01/31 00:10:06;;;;;;;86.87;18.00;;;;;;;;;;5069918;28;20223;-72
2022/01/31 00:12:39;;;;;;;88.27;18.47;;;;;;;;;;5081290;28;20248;-72
2022/01/31 00:15:07;;;;;;;92.67;20.47;;;5.70;99.90;;;;;;5083184;28;20207;-71
2022/01/31 00:17:34;;;;;;;85.83;18.20;;;5.60;99.90;;;;;;5067270;28;20239;-72
2022/01/31 00:20:01;;;;;;;85.13;18.40;;;;;;;;;;5087794;28;20203;-72
2022/01/31 00:22:29;;;;;;;82.73;17.00;;;;;;;;;;5084625;28;20242;-72
2022/01/31 00:24:56;;;;;;;106.90;22.07;;;;;;;;;;5084969;28;20250;-70
2022/01/31 00:27:23;;;;;;;100.50;19.13;;;5.70;99.90;;;;;;5081689;28;20737;-70
2022/01/31 00:29:50;;;;;;;102.67;20.43;;;;;;;;;;5086677;28;20207;-69
2022/01/31 00:32:18;;;;;;;84.17;16.57;;;5.70;99.90;;;;;;5083746;28;20231;-71
2022/01/31 00:34:46;;;;;;;90.80;19.67;;;;;;;;;;5069364;28;20200;-69
2022/01/31 00:37:13;;;;;;;91.97;18.97;;;5.80;99.90;;;;;;5087841;28;20204;-70
2022/01/31 00:39:40;;;;;;;79.20;16.03;;;;;;;;;;5095401;28;20207;-71
2022/01/31 00:42:07;;;;;;;99.80;20.73;;;5.80;99.90;;;;;;5074984;28;20680;-70
2022/01/31 00:44:40;;;;;;;102.13;21.37;;;;;;;;;;5089039;28;20207;-73
2022/01/31 00:47:17;;;;;;;83.53;17.60;;;5.80;99.90;;;;;;5066675;28;20230;-71
2022/01/31 00:49:50;;;;;;;84.17;18.33;;;5.80;99.90;;;;;;5067421;28;20210;-71
2022/01/31 00:52:17;;;;;;;85.67;17.13;;;6.70;99.90;;;;;;5085555;28;20646;-70
2022/01/31 00:54:45;;;;;;;97.87;19.87;;;;;;;;;;5086246;28;20214;-70
2022/01/31 00:57:12;;;;;;;94.27;18.97;;;;;;;;;;5084153;28;20683;-70
2022/01/31 00:59:39;;;;;;;89.50;18.97;;;;;;;;;;5066571;28;20263;-70
2022/01/31 01:02:06;;;;;;;92.30;19.50;;;;;;;;;;5086171;28;20219;-71
2022/01/31 01:04:33;;;;;;;98.87;18.90;;;5.90;99.90;;;;;;5085177;28;20218;-70
2022/01/31 01:07:01;;;;;;;99.03;21.10;;;5.90;99.90;;;;;;5080584;28;20299;-72
2022/01/31 01:09:29;;;;;;;93.63;19.43;;;;;;;;;;5087207;28;20209;-70
2022/01/31 01:11:56;;;;;;;95.53;20.33;;;;;;;;;;5066577;28;20262;-72
2022/01/31 01:14:23;;;;;;;95.20;18.97;;;5.90;99.90;;;;;;5063255;28;20481;-71
2022/01/31 01:16:50;;;;;;;97.90;20.47;;;5.90;99.90;;;;;;5066078;28;20207;-70
2022/01/31 01:19:17;;;;;;;103.27;20.90;;;;;;;;;;5068925;28;20215;-70
2022/01/31 01:21:44;;;;;;;96.93;20.10;;;5.90;99.90;;;;;;5062839;28;20240;-70
2022/01/31 01:24:14;;;;;;;91.30;18.97;;;5.90;99.90;;;;;;5066935;28;20212;-71
2022/01/31 01:26:42;;;;;;;97.67;19.80;;;;;;;;;;5067346;28;20283;-72
2022/01/31 01:29:09;;;;;;;86.93;18.43;;;5.90;99.90;;;;;;5069282;28;20320;-71
2022/01/31 01:31:37;;;;;;;93.03;18.80;;;5.90;99.90;;;;;;5064750;28;20224;-72
2022/01/31 01:34:04;;;;;;;78.83;17.60;;;;;;;;;;5066151;28;20319;-71
2022/01/31 01:36:32;;;;;;;102.37;20.37;;;;;;;;;;5067959;28;20208;-71
2022/01/31 01:38:59;;;;;;;88.30;19.43;;;;;;;;;;5064881;28;20208;-71
2022/01/31 01:41:28;;;;;;;76.90;14.53;;;6.00;99.90;;;;;;5079943;28;20200;-71
2022/01/31 01:43:55;;;;;;;125.87;24.83;;;;;;;;;;5066954;28;20242;-71
2022/01/31 01:46:23;;;;;;;87.93;18.57;;;;;;;;;;5062849;28;20266;-72
2022/01/31 01:48:51;;;;;;;84.73;18.40;;;;;;;;;;5063420;28;20204;-71
2022/01/31 01:51:18;;;;;;;95.40;20.43;;;;;;;;;;5066389;28;20586;-71
2022/01/31 01:53:45;;;;;;;100.53;21.53;;;;;;;;;;5065298;28;20219;-71
2022/01/31 01:56:14;;;;;;;93.77;19.87;;;6.10;99.90;;;;;;5080379;28;20222;-71
2022/01/31 01:58:44;;;;;;;107.97;22.20;;;6.10;99.90;;;;;;5064034;28;20208;-71
2022/01/31 02:01:12;;;;;;;106.67;21.67;;;6.10;99.90;;;;;;5092720;28;20363;-71
2022/01/31 02:03:49;;;;;;;83.73;17.83;;;6.10;99.90;;;;;;5063377;28;20208;-71
2022/01/31 02:06:18;;;;;;;97.73;19.53;;;6.10;99.90;;;;;;5060196;28;20239;-71
2022/01/31 02:08:46;;;;;;;109.23;21.73;;;;;;;;;;5053834;28;20299;-71
2022/01/31 02:11:20;;;;;;;91.07;18.30;;;6.00;99.90;;;;;;5067687;28;20207;-72
2022/01/31 02:13:50;;;;;;;69.47;12.23;;;6.00;99.90;;;;;;5064684;28;20208;-71
2022/01/31 02:16:40;;;;;;;76.80;13.50;;;6.00;99.90;;;;;;5073353;28;20316;-71
2022/01/31 02:19:15;;;;;;;75.00;15.60;;;5.90;99.90;;;;;;5066657;28;20217;-71
2022/01/31 02:22:04;;;;;;;82.10;13.67;;;5.90;99.90;;;;;;5073421;28;20693;-71
2022/01/31 02:25:00;;;;;;;99.53;20.13;;;5.80;99.90;;;;;;5072581;28;20266;-71
2022/01/31 02:27:32;;;;;;;96.23;19.47;;;5.80;99.90;;;;;;5083933;28;20699;-72
2022/01/31 02:30:02;;;;;;;113.57;21.77;;;6.90;99.90;;;;;;5063451;28;20212;-72
2022/01/31 02:32:33;;;;;;;103.53;22.33;;;;;;;;;;5066057;28;20790;-72
2022/01/31 02:35:02;;;;;;;100.43;20.60;;;5.60;99.90;;;;;;5064856;28;20582;-71
2022/01/31 02:37:32;;;;;;;91.57;20.23;;;5.60;99.90;;;;;;5063991;28;20250;-72
2022/01/31 02:40:13;;;;;;;90.53;18.87;;;;;;;;;;5064523;28;20227;-72
2022/01/31 02:42:40;;;;;;;96.37;21.73;;;;;;;;;;5067156;28;20220;-71
2022/01/31 02:45:08;;;;;;;109.23;23.10;;;5.50;99.90;;;;;;5081076;28;20250;-71
2022/01/31 02:47:40;;;;;;;110.57;23.73;;;;;;;;;;5064635;28;20215;-74
2022/01/31 02:50:12;;;;;;;91.40;19.27;;;5.40;99.90;;;;;;5085023;28;20207;-75
2022/01/31 02:52:46;;;;;;;117.57;25.10;;;5.50;99.90;;;;;;5063654;28;20233;-74
2022/01/31 02:55:15;;;;;;;89.13;20.27;;;5.30;99.90;;;;;;5077545;28;20294;-74
2022/01/31 02:57:43;;;;;;;98.57;23.20;;;;;;;;;;5066075;28;20232;-74
2022/01/31 03:00:11;;;;;;;104.60;22.00;;;5.30;99.90;;;;;;5066491;28;20307;-74
2022/01/31 03:03:03;;;;;;;103.67;22.97;;;;;;;;;;5069350;28;20231;-76
2022/01/31 03:05:30;;;;;;;100.27;21.07;;;;;;;;;;5073255;28;20256;-74
2022/01/31 03:07:59;;;;;;;85.67;19.63;;;5.20;99.90;;;;;;5070433;28;20220;-75
2022/01/31 03:10:27;;;;;;;90.43;20.10;;;;;;;;;;5070533;28;20573;-74
2022/01/31 03:12:54;;;;;;;96.73;22.00;;;;;;;;;;5067821;28;20273;-76
2022/01/31 03:15:21;;;;;;;106.90;23.47;;;5.20;99.90;;;;;;5068675;28;20758;-74
2022/01/31 03:18:14;;;;;;;82.70;19.27;;;;;;;;;;5078121;28;20216;-74
2022/01/31 03:20:42;;;;;;;96.27;22.60;;;;;;;;;;5070696;28;20629;-74
2022/01/31 03:23:11;;;;;;;112.10;23.63;;;5.20;99.90;;;;;;5068393;28;20364;-75
2022/01/31 03:25:38;;;;;;;83.00;14.97;;;5.20;99.90;;;;;;5068538;28;20704;-74
2022/01/31 03:28:05;;;;;;;91.83;19.03;;;5.10;99.90;;;;;;5089278;28;20207;-76
2022/01/31 03:30:32;;;;;;;88.90;19.77;;;;;;;;;;5085701;28;20215;-74
2022/01/31 03:33:01;;;;;;;102.13;23.07;;;;;;;;;;5065654;28;20744;-75
2022/01/31 03:35:28;;;;;;;114.07;24.03;;;;;;;;;;5070023;28;20207;-75
2022/01/31 03:37:55;;;;;;;102.43;23.30;;;;;;;;;;5066387;28;20230;-74
2022/01/31 03:40:27;;;;;;;91.63;20.93;;;5.20;99.90;;;;;;5066610;28;20216;-74
2022/01/31 03:42:54;;;;;;;101.33;23.10;;;;;;;;;;5071249;28;20743;-74
2022/01/31 03:45:22;;;;;;;95.97;22.30;;;5.20;99.90;;;;;;5068010;28;20578;-74
2022/01/31 03:48:05;;;;;;;100.30;23.20;;;5.30;99.90;;;;;;5066058;28;20212;-74
2022/01/31 03:50:33;;;;;;;101.97;25.80;;;4.70;99.90;;;;;;5067382;28;20203;-73
2022/01/31 03:53:00;;;;;;;73.93;14.03;;;5.30;99.90;;;;;;5069657;28;20577;-74
2022/01/31 03:55:29;;;;;;;59.53;10.40;;;5.40;99.90;;;;;;5070242;28;20279;-75
2022/01/31 03:57:56;;;;;;;54.30;9.50;;;5.40;99.90;;;;;;5065496;28;20208;-75
2022/01/31 04:00:30;;;;;;;51.03;9.33;;;5.40;99.90;;;;;;5069369;28;20287;-74
2022/01/31 04:02:57;;;;;;;49.83;9.67;;;5.50;99.90;;;;;;5470354;22;20268;-74
2022/01/31 04:05:24;;;;;;;51.07;10.20;;;5.50;99.90;;;;;;5090833;28;20237;-74
2022/01/31 04:07:51;;;;;;;60.10;12.60;;;5.50;99.90;;;;;;5086751;28;20221;-74
2022/01/31 04:10:18;;;;;;;50.97;11.33;;;5.50;99.90;;;;;;5096312;28;20208;-77
2022/01/31 04:12:46;;;;;;;49.77;10.13;;;5.60;99.90;;;;;;5084056;28;20313;-74
2022/01/31 04:15:13;;;;;;;45.27;9.60;;;5.60;99.90;;;;;;5087093;28;20216;-74
2022/01/31 04:17:40;;;;;;;33.00;6.67;;;5.60;99.90;;;;;;5125198;22;20322;-73
2022/01/31 04:20:09;;;;;;;37.17;8.33;;;5.70;99.90;;;;;;5108928;28;20240;-71
2022/01/31 04:22:41;;;;;;;45.37;11.37;;;5.70;99.90;;;;;;5105398;28;20217;-73
2022/01/31 04:25:17;;;;;;;35.60;8.73;;;5.70;99.90;;;;;;5107879;28;20212;-73
2022/01/31 04:27:50;;;;;;;38.33;7.30;;;5.80;99.90;;;;;;5108283;28;20238;-72
2022/01/31 04:30:17;;;;;;;29.10;6.13;;;5.80;99.90;;;;;;5102869;28;20274;-73
2022/01/31 04:32:46;;;;;;;28.73;6.57;;;5.90;99.90;;;;;;5105425;28;20837;-72
2022/01/31 04:35:13;;;;;;;28.10;5.97;;;5.90;99.90;;;;;;5094219;28;20207;-76
2022/01/31 04:37:40;;;;;;;31.87;7.33;;;5.90;99.90;;;;;;5108667;28;20254;-73
2022/01/31 04:40:13;;;;;;;34.30;7.23;;;6.00;99.90;;;;;;5106928;28;20268;-76
2022/01/31 04:42:42;;;;;;;38.43;7.30;;;6.00;99.90;;;;;;5108297;28;20639;-76
2022/01/31 04:45:11;;;;;;;27.73;6.03;;;6.00;99.90;;;;;;5107998;28;20638;-75
2022/01/31 04:47:38;;;;;;;33.80;7.33;;;6.10;99.90;;;;;;5104855;28;20254;-72
2022/01/31 04:50:07;;;;;;;32.43;6.73;;;6.20;99.90;;;;;;5105535;28;20211;-72
2022/01/31 04:52:34;;;;;;;35.77;8.00;;;6.20;99.90;;;;;;5109233;28;20199;-72
2022/01/31 04:55:01;;;;;;;33.90;7.33;;;6.20;99.90;;;;;;5107660;28;20207;-72
2022/01/31 04:57:28;;;;;;;36.23;8.17;;;6.30;99.90;;;;;;5106507;28;20231;-72
2022/01/31 04:59:55;;;;;;;29.97;7.03;;;6.30;99.90;;;;;;5105920;28;20216;-72
2022/01/31 05:02:24;;;;;;;29.70;7.63;;;6.30;99.90;;;;;;5107217;28;20506;-72
2022/01/31 05:04:51;;;;;;;36.43;7.60;;;6.40;99.90;;;;;;5105309;28;20207;-72
2022/01/31 05:07:18;;;;;;;31.57;6.40;;;6.40;99.90;;;;;;5098259;28;20283;-72
2022/01/31 05:09:45;;;;;;;30.47;6.80;;;6.40;99.90;;;;;;5107939;28;20690;-73
2022/01/31 05:12:12;;;;;;;27.73;6.33;;;6.50;99.90;;;;;;5105740;28;20620;-72
2022/01/31 05:14:39;;;;;;;32.20;7.03;;;6.50;99.90;;;;;;5104713;28;20235;-71
2022/01/31 05:17:06;;;;;;;45.77;8.77;;;6.50;99.90;;;;;;5108787;28;20280;-72
2022/01/31 05:19:34;;;;;;;39.67;8.10;;;6.50;99.90;;;;;;5108771;28;20276;-72
2022/01/31 05:22:01;;;;;;;30.27;6.07;;;6.60;99.90;;;;;;5110330;28;20312;-72
2022/01/31 05:24:28;;;;;;;36.43;7.50;;;6.50;99.90;;;;;;5111980;28;20216;-72
2022/01/31 05:26:55;;;;;;;29.77;6.07;;;6.50;99.90;;;;;;5111817;28;20657;-72
2022/01/31 05:29:23;;;;;;;37.63;7.83;;;6.60;99.90;;;;;;5107134;28;20218;-72
2022/01/31 05:31:52;;;;;;;48.67;9.63;;;6.60;99.90;;;;;;5106802;28;20226;-72
2022/01/31 05:34:19;;;;;;;33.63;7.17;;;6.60;99.90;;;;;;5109256;28;20294;-71
2022/01/31 05:36:51;;;;;;;36.23;7.70;;;6.60;99.90;;;;;;5107799;28;20328;-72
2022/01/31 05:39:18;;;;;;;42.53;8.17;;;6.60;99.90;;;;;;5108857;28;20290;-72
2022/01/31 05:41:45;;;;;;;33.90;7.50;;;6.70;99.90;;;;;;5106207;28;20276;-72
2022/01/31 05:44:12;;;;;;;46.83;9.13;;;6.70;99.90;;;;;;5108964;28;20214;-72
2022/01/31 05:46:39;;;;;;;40.17;9.07;;;6.70;99.90;;;;;;5105296;28;20672;-72
2022/01/31 05:49:06;;;;;;;36.23;7.87;;;6.70;99.90;;;;;;5107136;28;20239;-71
2022/01/31 05:51:33;;;;;;;38.70;7.93;;;6.70;99.90;;;;;;5107545;28;20272;-72
2022/01/31 05:54:01;;;;;;;41.10;7.60;;;6.70;99.90;;;;;;5105561;28;20206;-71
2022/01/31 05:56:28;;;;;;;36.47;7.47;;;7.00;99.90;;;;;;5107705;28;20234;-71
2022/01/31 05:58:55;;;;;;;36.83;7.10;;;6.70;99.90;;;;;;5113365;28;20204;-72
2022/01/31 06:01:22;;;;;;;33.60;6.37;;;6.80;99.90;;;;;;5108866;28;20203;-72
2022/01/31 06:03:49;;;;;;;30.57;6.70;;;6.80;99.90;;;;;;5110468;28;20213;-71
2022/01/31 06:06:16;;;;;;;38.83;7.07;;;6.90;99.90;;;;;;5106448;28;20227;-72
2022/01/31 06:08:42;;;;;;;50.27;8.37;;;6.90;99.90;;;;;;5106962;28;20209;-74
2022/01/31 06:11:11;;;;;;;32.37;6.83;;;6.90;99.90;;;;;;5101937;28;20215;-73
2022/01/31 06:13:38;;;;;;;29.27;5.83;;;6.90;99.90;;;;;;5107489;28;20305;-73
2022/01/31 06:16:05;;;;;;;31.33;6.50;;;6.90;99.90;;;;;;5106688;28;20199;-75
2022/01/31 06:18:35;;;;;;;28.47;5.67;;;6.90;99.90;;;;;;5105000;28;20331;-75
2022/01/31 06:21:03;;;;;;;35.23;7.30;;;6.90;99.90;;;;;;5099025;28;20238;-76
2022/01/31 06:23:30;;;;;;;33.80;6.83;;;6.90;99.90;;;;;;5107133;28;20227;-72
2022/01/31 06:25:57;;;;;;;34.77;6.23;;;6.90;99.90;;;;;;5106000;28;20691;-73
2022/01/31 06:28:25;;;;;;;34.00;6.50;;;6.90;99.90;;;;;;5097723;28;20235;-72
2022/01/31 06:30:59;;;;;;;35.10;6.53;;;6.90;99.90;;;;;;5103634;28;20230;-77
2022/01/31 06:33:26;;;;;;;33.77;5.83;;;6.90;99.90;;;;;;5090552;28;20205;-73
2022/01/31 06:35:53;;;;;;;35.80;6.30;;;7.00;99.90;;;;;;5098525;28;20298;-74
2022/01/31 06:38:21;;;;;;;33.17;6.70;;;6.90;99.90;;;;;;5107858;28;20581;-73
2022/01/31 06:40:48;;;;;;;33.80;6.43;;;6.90;99.90;;;;;;5107039;28;20203;-78
2022/01/31 06:43:15;;;;;;;40.97;7.30;;;6.90;99.90;;;;;;5105343;28;20199;-75
2022/01/31 06:45:44;;;;;;;42.07;8.17;;;6.90;99.90;;;;;;5106435;28;20282;-74
2022/01/31 06:48:11;;;;;;;41.13;6.43;;;6.90;99.90;;;;;;5109127;28;20228;-75
2022/01/31 06:50:38;;;;;;;35.17;6.33;;;6.80;99.90;;;;;;5108250;28;20243;-77
2022/01/31 06:53:06;;;;;;;32.83;6.27;;;6.70;99.90;;;;;;5105623;28;20215;-74
2022/01/31 06:55:34;;;;;;;30.33;5.83;;;6.60;99.90;;;;;;5112478;28;20345;-77
2022/01/31 06:58:02;;;;;;;32.30;5.80;;;6.40;99.90;;;;;;5113081;28;20215;-73
2022/01/31 07:00:29;;;;;;;25.43;4.83;;;6.30;99.90;;;;;;5110527;28;20234;-73
2022/01/31 07:03:00;;;;;;;24.53;5.27;;;6.10;99.90;;;;;;5109227;28;20469;-73
2022/01/31 07:05:27;;;;;;;33.40;5.83;;;5.90;99.90;;;;;;5105946;28;20199;-73
2022/01/31 07:07:54;;;;;;;31.03;5.97;;;5.70;99.90;;;;;;5109746;28;20250;-77
2022/01/31 07:10:21;;;;;;;26.27;6.00;;;5.70;99.90;;;;;;5110300;28;20695;-75
2022/01/31 07:12:52;;;;;;;35.23;6.17;;;5.60;99.90;;;;;;5112479;28;20206;-75
2022/01/31 07:15:20;;;;;;;29.43;5.20;;;5.70;99.90;;;;;;5111106;28;20219;-74
2022/01/31 07:17:47;;;;;;;34.00;6.33;;;5.70;99.90;;;;;;5113794;28;20736;-77
2022/01/31 07:20:23;;;;;;;28.97;5.13;;;5.80;99.90;;;;;;5112175;28;20588;-74
2022/01/31 07:22:56;;;;;;;33.47;6.07;;;5.70;99.90;;;;;;5108033;28;20208;-77
2022/01/31 07:25:34;;;;;;;37.60;6.43;;;5.70;99.90;;;;;;5101683;28;20262;-74
2022/01/31 07:28:02;;;;;;;25.47;4.63;;;5.80;99.90;;;;;;5101677;28;20337;-74
2022/01/31 07:30:29;;;;;;;30.83;5.70;;;5.80;99.90;;;;;;5110970;28;20667;-74
2022/01/31 07:32:56;;;;;;;29.17;4.90;;;5.80;99.90;;;;;;5104158;28;20209;-76
2022/01/31 07:35:24;;;;;;;34.30;5.67;;;5.80;99.90;;;;;;5110386;28;20605;-74
2022/01/31 07:37:51;;;;;;;28.93;5.57;;;5.80;99.90;;;;;;5108140;28;20230;-74
2022/01/31 07:40:18;;;;;;;31.60;5.90;;;5.80;99.90;;;;;;5108856;28;20229;-75
2022/01/31 07:42:45;;;;;;;37.20;6.93;;;5.80;99.90;;;;;;5109993;28;20672;-74
2022/01/31 07:45:13;;;;;;;39.17;6.93;;;5.70;99.90;;;;;;5102486;28;20304;-76
2022/01/31 07:47:40;;;;;;;33.33;6.03;;;5.80;99.90;;;;;;5108780;28;20223;-75
2022/01/31 07:50:09;;;;;;;32.23;5.77;;;5.80;99.90;;;;;;5111304;27;20199;-74
2022/01/31 07:52:37;;;;;;;37.40;6.53;;;5.80;99.90;;;;;;5106162;28;20290;-76
2022/01/31 07:55:06;;;;;;;33.10;6.00;;;5.80;99.90;;;;;;5109280;28;20249;-75
2022/01/31 07:57:34;;;;;;;34.33;6.70;;;5.80;99.90;;;;;;5112912;27;20626;-75
2022/01/31 08:00:02;;;;;;;33.03;5.87;;;5.90;99.90;;;;;;5109070;28;20648;-75
2022/01/31 08:02:39;;;;;;;33.43;6.50;;;5.90;99.90;;;;;;5104291;28;20216;-75
2022/01/31 08:05:08;;;;;;;31.17;6.03;;;5.80;99.90;;;;;;5109691;28;20298;-73
2022/01/31 08:07:37;;;;;;;38.67;7.30;;;5.90;99.90;;;;;;5105047;28;20267;-77
2022/01/31 08:10:05;;;;;;;31.30;6.07;;;5.80;99.90;;;;;;5108833;28;20208;-73
2022/01/31 08:12:35;;;;;;;36.27;6.83;;;5.90;99.90;;;;;;5104447;28;20431;-73
2022/01/31 08:15:06;;;;;;;37.53;6.50;;;6.70;99.90;;;;;;5102670;28;20261;-73
2022/01/31 08:17:34;;;;;;;30.13;5.93;;;5.90;99.90;;;;;;5104715;28;20713;-75
2022/01/31 08:20:01;;;;;;;35.43;6.20;;;5.90;99.90;;;;;;5112201;28;20334;-76
2022/01/31 08:22:28;;;;;;;36.90;6.50;;;6.00;99.90;;;;;;5106292;28;20539;-75
2022/01/31 08:24:56;;;;;;;35.17;6.80;;;6.00;99.90;;;;;;5103301;28;20290;-77
2022/01/31 08:27:24;;;;;;;32.80;6.43;;;6.00;99.90;;;;;;5105737;28;20235;-74
2022/01/31 08:29:56;;;;;;;31.10;6.37;;;6.00;99.90;;;;;;5110602;28;20212;-76
2022/01/31 08:32:33;;;;;;;37.27;6.67;;;6.10;99.90;;;;;;5101783;28;20204;-73
2022/01/31 08:37:45;;;;;;;47.67;7.73;;;6.10;99.90;;;;;;5107304;28;20679;-73
2022/01/31 08:40:13;;;;;;;38.53;6.77;;;6.10;99.90;;;;;;5109049;28;20268;-76
2022/01/31 08:42:40;;;;;;;39.90;6.77;;;6.10;99.90;;;;;;5110364;28;20203;-70
2022/01/31 08:45:09;;;;;;;33.57;6.20;;;6.10;99.90;;;;;;5108653;28;20374;-75
2022/01/31 08:47:40;;;;;;;43.80;7.67;;;6.10;99.90;;;;;;5107237;27;20284;-74
2022/01/31 08:50:07;;;;;;;37.97;7.30;;;6.10;99.90;;;;;;5109114;28;20199;-72
2022/01/31 08:52:34;;;;;;;38.47;7.10;;;6.10;99.90;;;;;;5119456;27;20209;-75
2022/01/31 08:55:01;;;;;;;38.23;6.57;;;6.10;99.90;;;;;;5099130;28;20555;-73
2022/01/31 08:57:30;;;;;;;30.53;5.63;;;6.10;99.90;;;;;;5108271;28;20223;-73
2022/01/31 08:59:57;;;;;;;38.03;7.07;;;6.20;99.90;;;;;;5103487;28;20203;-73
2022/01/31 09:02:36;;;;;;;32.87;6.10;;;6.10;99.90;;;;;;5096317;28;20223;-72
2022/01/31 09:05:03;;;;;;;37.30;7.00;;;6.10;99.90;;;;;;5103156;28;20212;-72
2022/01/31 09:07:30;;;;;;;33.20;6.43;;;6.10;99.90;;;;;;5110357;28;20235;-73
2022/01/31 09:10:01;;;;;;;33.23;5.83;;;6.10;99.90;;;;;;5110448;28;20218;-75
2022/01/31 09:12:31;;;;;;;50.37;8.33;;;6.10;99.90;;;;;;5105470;28;20230;-76
2022/01/31 09:14:59;;;;;;;37.27;7.27;;;6.10;99.90;;;;;;5104112;28;20543;-76
2022/01/31 09:17:27;;;;;;;46.40;8.27;;;6.20;99.90;;;;;;5108623;28;20231;-71
2022/01/31 09:19:53;;;;;;;43.33;7.87;;;6.20;99.90;;;;;;5105048;28;20461;-70
2022/01/31 09:22:20;;;;;;;36.20;6.27;;;6.20;99.90;;;;;;5106874;28;20215;-70
2022/01/31 09:24:50;;;;;;;41.23;7.03;;;6.20;99.90;;;;;;5109643;28;20658;-71
2022/01/31 09:27:17;;;;;;;36.23;6.07;;;6.20;99.90;;;;;;5110464;28;20230;-70
2022/01/31 09:29:44;;;;;;;32.70;6.70;;;6.20;99.90;;;;;;5107223;28;20296;-71
2022/01/31 09:32:13;;;;;;;36.43;6.87;;;6.30;99.90;;;;;;5103314;28;20214;-70
2022/01/31 09:34:40;;;;;;;40.13;7.93;;;6.20;99.90;;;;;;5108119;28;20465;-70
2022/01/31 09:37:08;;;;;;;37.53;7.30;;;6.20;99.90;;;;;;5104776;28;20219;-71
2022/01/31 09:39:35;;;;;;;38.70;6.40;;;6.20;99.90;;;;;;5108395;28;20203;-70
2022/01/31 09:42:05;;;;;;;36.07;6.53;;;6.20;99.90;;;;;;5109385;28;20622;-71
2022/01/31 09:44:52;;;;;;;34.07;6.17;;;6.20;99.90;;;;;;5105118;28;20487;-70
2022/01/31 09:47:24;;;;;;;38.53;7.50;;;6.20;99.90;;;;;;5103248;28;20262;-69
2022/01/31 09:49:51;;;;;;;45.10;7.53;;;6.30;99.90;;;;;;5109002;28;20203;-69
2022/01/31 09:52:19;;;;;;;36.53;6.97;;;6.20;99.90;;;;;;5109987;28;20294;-69
2022/01/31 09:54:48;;;;;;;41.00;7.93;;;6.30;99.90;;;;;;5105672;28;20217;-70
2022/01/31 09:57:16;;;;;;;37.30;6.73;;;6.30;99.90;;;;;;5104308;28;20239;-70
2022/01/31 09:59:43;;;;;;;39.23;7.40;;;6.30;99.90;;;;;;5097121;28;20222;-69
2022/01/31 10:02:11;;;;;;;40.40;7.47;;;6.30;99.90;;;;;;5106057;28;20652;-69
2022/01/31 10:04:44;;;;;;;39.20;6.83;;;6.30;99.90;;;;;;5107173;28;20215;-69
2022/01/31 10:07:13;;;;;;;41.07;7.47;;;6.40;99.90;;;;;;5106780;28;20292;-73
2022/01/31 10:09:43;;;;;;;39.27;6.30;;;6.40;99.90;;;;;;5100786;28;20210;-73
2022/01/31 10:12:21;;;;;;;30.90;5.63;;;6.40;99.90;;;;;;5102331;28;20218;-72
2022/01/31 10:17:35;;;;;;;77.50;10.77;;;6.40;99.90;;;;;;5117410;22;20232;-85
2022/01/31 10:20:07;;;;;;;32.37;6.17;;;6.40;99.90;;;;;;5095419;28;20640;-86
2022/01/31 10:22:36;;;;;;;45.23;8.00;;;6.50;99.90;;;;;;5096692;28;20655;-84
2022/01/31 10:25:08;;;;;;;26.10;5.60;;;6.50;99.90;;;;;;5096733;28;20210;-84
2022/01/31 10:27:37;;;;;;;37.77;6.87;;;6.60;99.90;;;;;;5097997;28;20225;-84
2022/01/31 10:30:10;;;;;;;34.97;6.77;;;6.60;99.90;;;;;;5099201;28;20263;-84
2022/01/31 10:32:40;;;;;;;33.87;6.87;;;6.70;99.90;;;;;;5098565;28;20593;-83
2022/01/31 10:35:19;;;;;;;31.47;6.57;;;6.70;99.90;;;;;;5101789;28;20195;-84
2022/01/31 10:37:48;;;;;;;24.67;5.90;;;6.60;99.90;;;;;;5100469;28;20208;-85
2022/01/31 10:46:06;;;;;;;41.60;6.97;;;6.60;99.90;;;;;;5052006;28;20231;-86
2022/01/31 10:54:29;;;;;;;32.30;5.93;;;6.70;99.90;;;;;;5083026;28;20650;-86
2022/01/31 10:56:59;;;;;;;32.70;6.50;;;6.70;99.90;;;;;;5082071;28;20235;-85
2022/01/31 10:59:28;;;;;;;33.07;5.97;;;6.70;99.90;;;;;;5081236;28;20222;-85
2022/01/31 11:01:57;;;;;;;29.83;6.33;;;6.70;99.90;;;;;;5081281;28;20826;-84
2022/01/31 11:04:32;;;;;;;33.57;7.07;;;6.70;99.90;;;;;;5081146;28;20236;-84
2022/01/31 11:07:08;;;;;;;33.40;6.50;;;6.70;99.90;;;;;;5081069;28;20301;-84
2022/01/31 11:09:48;;;;;;;33.77;6.70;;;6.70;99.90;;;;;;5082772;28;20188;-84
2022/01/31 11:12:19;;;;;;;31.33;5.87;;;6.70;99.90;;;;;;5080181;28;20227;-85
2022/01/31 11:14:47;;;;;;;37.50;7.23;;;6.80;99.90;;;;;;5080515;28;20679;-84
2022/01/31 11:17:16;;;;;;;37.17;6.93;;;6.80;99.90;;;;;;5080576;28;20239;-84
2022/01/31 11:19:47;;;;;;;47.30;9.00;;;6.80;99.90;;;;;;5062056;28;20723;-85
2022/01/31 11:22:26;;;;;;;31.47;6.33;;;6.80;99.90;;;;;;5077382;28;20704;-84
2022/01/31 11:24:55;;;;;;;42.73;8.87;;;6.80;99.90;;;;;;5072692;28;20224;-85
2022/01/31 11:27:27;;;;;;;44.43;7.03;;;6.80;99.90;;;;;;5078154;28;20231;-84
2022/01/31 11:29:56;;;;;;;42.60;9.10;;;6.80;99.90;;;;;;5081164;28;20198;-85
2022/01/31 11:32:23;;;;;;;32.90;7.13;;;6.70;99.90;;;;;;5078921;28;20259;-84
2022/01/31 11:34:55;;;;;;;35.97;7.60;;;6.70;99.90;;;;;;5079937;28;20191;-84
2022/01/31 11:37:26;;;;;;;37.77;7.13;;;6.80;99.90;;;;;;5079508;28;20251;-84
2022/01/31 11:39:55;;;;;;;44.33;8.73;;;6.90;99.90;;;;;;5078878;28;20214;-84
2022/01/31 11:42:22;;;;;;;45.80;8.77;;;7.00;99.90;;;;;;5086370;28;20208;-85
2022/01/31 11:44:56;;;;;;;40.80;8.40;;;7.00;99.90;;;;;;5078725;28;20400;-85
2022/01/31 11:47:24;;;;;;;35.83;7.70;;;7.00;99.90;;;;;;5078419;28;20259;-84
2022/01/31 11:49:53;;;;;;;40.33;7.13;;;7.10;99.90;;;;;;5078493;28;20202;-84
2022/01/31 11:52:22;;;;;;;42.93;8.33;;;7.10;99.90;;;;;;5095452;28;20273;-84
2022/01/31 11:55:02;;;;;;;35.83;7.07;;;7.10;99.90;;;;;;5098153;28;20197;-83
2022/01/31 11:57:37;;;;;;;40.57;8.73;;;7.10;99.90;;;;;;5093874;28;20265;-84
2022/01/31 12:00:08;;;;;;;37.10;7.67;;;7.10;99.90;;;;;;5076555;28;20278;-85
2022/01/31 12:02:44;;;;;;;52.97;10.97;;;7.10;99.90;;;;;;5071553;28;20211;-83
2022/01/31 12:05:15;;;;;;;46.50;9.03;;;7.10;99.90;;;;;;5076713;28;20253;-87
2022/01/31 12:07:44;;;;;;;45.70;8.30;;;7.20;99.90;;;;;;5076497;28;20746;-86
2022/01/31 12:10:21;;;;;;;39.73;7.37;;;7.20;99.90;;;;;;5072234;28;20866;-87
2022/01/31 12:12:54;;;;;;;38.07;8.10;;;7.30;99.90;;;;;;5078447;28;20702;-90
2022/01/31 12:16:04;;;;;;;47.43;8.87;;;7.20;99.90;;;;;;5075535;28;20214;-86
2022/01/31 12:18:57;;;;;;;43.03;8.00;;;7.20;99.90;;;;;;5076763;28;20240;-87
2022/01/31 12:24:28;;;;;;;39.43;8.10;;;7.20;99.90;;;;;;5072061;28;20322;-86
2022/01/31 12:26:59;;;;;;;36.87;7.17;;;7.10;99.90;;;;;;5074107;28;20222;-86
2022/01/31 12:29:30;;;;;;;37.93;7.40;;;7.10;99.90;;;;;;5077936;28;20251;-87
2022/01/31 12:31:59;;;;;;;53.23;9.27;;;7.10;99.90;;;;;;5070333;28;20263;-87
2022/01/31 12:34:36;;;;;;;37.60;7.30;;;7.10;99.90;;;;;;5075429;28;20589;-88
2022/01/31 12:37:05;;;;;;;37.97;7.57;;;7.00;99.90;;;;;;5076996;28;20327;-85
2022/01/31 12:40:03;;;;;;;40.70;7.60;;;7.00;99.90;;;;;;5078558;28;20204;-85
2022/01/31 12:43:10;;;;;;;38.67;8.23;;;7.00;99.90;;;;;;5079418;28;20611;-83
2022/01/31 12:46:16;;;;;;;34.27;6.37;;;7.00;99.90;;;;;;5077112;28;20201;-84
2022/01/31 12:49:04;;;;;;;35.27;6.80;;;7.00;99.90;;;;;;5093097;28;20284;-85
2022/01/31 12:51:32;;;;;;;36.40;6.70;;;7.00;99.90;;;;;;5073677;28;20218;-85
2022/01/31 12:54:00;;;;;;;33.17;6.37;;;7.00;99.90;;;;;;5076340;28;20222;-85
2022/01/31 12:56:30;;;;;;;37.80;6.23;;;7.00;99.90;;;;;;5075960;28;20331;-84
2022/01/31 12:59:09;;;;;;;33.60;6.80;;;7.00;99.90;;;;;;5077540;28;20212;-85
2022/01/31 13:01:38;;;;;;;28.00;6.00;;;7.00;99.90;;;;;;5080612;28;20201;-85
2022/01/31 13:04:08;;;;;;;30.97;6.13;;;7.00;99.90;;;;;;5082948;28;20266;-85
2022/01/31 13:06:39;;;;;;;42.60;8.07;;;7.00;99.90;;;;;;5083863;28;20204;-85
2022/01/31 13:09:22;;;;;;;35.83;6.23;;;7.00;99.90;;;;;;5096537;28;20253;-85
2022/01/31 13:11:51;;;;;;;32.27;5.60;;;7.00;99.90;;;;;;5083976;28;20205;-85
2022/01/31 13:14:23;;;;;;;32.93;7.10;;;7.00;99.90;;;;;;5083565;28;20225;-85
2022/01/31 13:17:00;;;;;;;35.70;5.90;;;6.90;99.90;;;;;;5090213;28;20208;-85
2022/01/31 13:19:31;;;;;;;32.77;7.40;;;6.90;99.90;;;;;;5083861;28;20204;-85
2022/01/31 13:21:59;;;;;;;33.33;6.47;;;6.90;99.90;;;;;;5091011;28;20199;-85
2022/01/31 13:24:41;;;;;;;29.40;6.00;;;6.80;99.90;;;;;;5096115;28;20213;-85
2022/01/31 13:27:11;;;;;;;28.57;6.07;;;6.90;99.90;;;;;;5083758;28;20227;-85
2022/01/31 13:29:45;;;;;;;32.03;6.63;;;6.90;99.90;;;;;;5094837;28;20237;-85